createdAt,value
2019-01-18T00:00:38.617Z,3.60
2019-01-18T00:03:08.035Z,2.83
2019-01-18T00:05:37.374Z,2.73
2019-01-18T00:08:06.704Z,2.23
2019-01-18T00:10:36.036Z,1.73
2019-01-18T00:13:05.435Z,1.97
2019-01-18T00:15:34.865Z,2.37
2019-01-18T00:18:04.193Z,2.37
2019-01-18T00:20:33.608Z,2.50
2019-01-18T00:23:02.915Z,2.80
2019-01-18T00:25:32.262Z,2.77
2019-01-18T00:28:01.635Z,2.80
2019-01-18T00:30:31.071Z,2.47
2019-01-18T00:33:00.472Z,2.53
2019-01-18T00:35:29.880Z,2.60
2019-01-18T00:37:59.290Z,2.67
2019-01-18T00:40:28.725Z,2.17
2019-01-18T00:42:58.057Z,2.90
2019-01-18T00:45:27.390Z,2.80
2019-01-18T00:47:56.755Z,2.53
2019-01-18T00:50:26.102Z,1.70
2019-01-18T00:52:55.441Z,2.50
2019-01-18T00:55:24.889Z,2.07
2019-01-18T00:57:54.340Z,2.90
2019-01-18T01:00:25.893Z,2.83
2019-01-18T01:02:55.387Z,3.00
2019-01-18T01:05:25.200Z,3.00
2019-01-18T01:07:54.568Z,3.23
2019-01-18T01:10:23.900Z,2.63
2019-01-18T01:12:53.227Z,2.20
2019-01-18T01:15:22.556Z,3.27
2019-01-18T01:17:51.895Z,2.40
2019-01-18T01:20:22.114Z,2.60
2019-01-18T01:22:51.502Z,2.07
2019-01-18T01:25:20.779Z,2.17
2019-01-18T01:27:50.267Z,2.30
2019-01-18T01:30:21.263Z,2.47
2019-01-18T01:32:50.597Z,2.00
2019-01-18T01:35:19.956Z,2.33
2019-01-18T01:37:49.340Z,1.93
2019-01-18T01:40:20.951Z,2.03
2019-01-18T01:42:50.249Z,1.30
2019-01-18T01:45:19.598Z,1.90
2019-01-18T01:47:49.021Z,2.27
2019-01-18T01:50:20.229Z,1.40
2019-01-18T01:52:49.605Z,1.93
2019-01-18T01:55:18.995Z,2.20
2019-01-18T01:57:48.389Z,1.97
2019-01-18T02:00:19.772Z,2.00
2019-01-18T02:02:49.083Z,1.97
2019-01-18T02:05:18.583Z,2.10
2019-01-18T02:07:47.921Z,2.10
2019-01-18T02:10:17.830Z,1.97
2019-01-18T02:12:47.263Z,2.40
2019-01-18T02:15:18.534Z,2.37
2019-01-18T02:17:47.931Z,2.33
2019-01-18T02:20:18.689Z,2.50
2019-01-18T02:22:48.058Z,2.37
2019-01-18T02:25:17.363Z,2.50
2019-01-18T02:27:46.743Z,2.70
2019-01-18T02:30:21.308Z,2.53
2019-01-18T02:32:50.753Z,3.00
2019-01-18T02:35:20.014Z,2.90
2019-01-18T02:37:49.360Z,2.70
2019-01-18T02:40:18.674Z,2.67
2019-01-18T02:42:47.944Z,2.50
2019-01-18T02:45:18.906Z,2.63
2019-01-18T02:47:48.235Z,2.53
2019-01-18T02:50:17.607Z,2.47
2019-01-18T02:52:46.917Z,2.70
2019-01-18T02:55:16.249Z,2.77
2019-01-18T02:58:00.970Z,2.50
2019-01-18T03:00:35.262Z,2.17
2019-01-18T03:03:04.616Z,2.10
2019-01-18T03:05:33.904Z,3.10
2019-01-18T03:08:03.169Z,3.10
2019-01-18T03:10:32.540Z,2.70
2019-01-18T03:13:01.806Z,2.50
2019-01-18T03:15:31.043Z,3.33
2019-01-18T03:18:00.428Z,3.10
2019-01-18T03:20:29.783Z,3.57
2019-01-18T03:22:59.068Z,2.60
2019-01-18T03:25:29.211Z,3.27
2019-01-18T03:27:58.523Z,3.30
2019-01-18T03:30:27.857Z,3.33
2019-01-18T03:32:57.140Z,3.20
2019-01-18T03:35:26.411Z,3.00
2019-01-18T03:37:55.669Z,3.27
2019-01-18T03:40:25.020Z,2.90
2019-01-18T03:42:54.308Z,3.63
2019-01-18T03:45:23.624Z,1.93
2019-01-18T03:47:52.868Z,2.83
2019-01-18T03:50:26.589Z,2.67
2019-01-18T03:52:55.866Z,2.23
2019-01-18T03:55:25.161Z,2.40
2019-01-18T03:57:54.473Z,2.70
2019-01-18T04:00:28.793Z,2.87
2019-01-18T04:02:58.048Z,2.53
2019-01-18T04:05:27.528Z,3.10
2019-01-18T04:07:56.870Z,2.83
2019-01-18T04:10:26.179Z,2.80
2019-01-18T04:12:55.455Z,3.03
2019-01-18T04:15:24.826Z,3.47
2019-01-18T04:17:54.134Z,2.70
2019-01-18T04:20:23.462Z,2.87
2019-01-18T04:22:52.771Z,2.53
2019-01-18T04:25:29.958Z,2.90
2019-01-18T04:27:59.289Z,3.03
2019-01-18T04:30:33.341Z,3.13
2019-01-18T04:32:57.919Z,3.43
2019-01-18T04:35:27.170Z,3.03
2019-01-18T04:37:56.434Z,3.07
2019-01-18T04:40:26.664Z,3.43
2019-01-18T04:42:56.024Z,2.83
2019-01-18T04:45:25.276Z,3.50
2019-01-18T04:47:54.594Z,3.00
2019-01-18T04:50:25.445Z,2.87
2019-01-18T04:52:54.772Z,2.80
2019-01-18T04:55:24.064Z,3.30
2019-01-18T04:57:53.368Z,3.03
2019-01-18T05:00:27.180Z,3.37
2019-01-18T05:02:56.472Z,3.10
2019-01-18T05:05:25.728Z,3.53
2019-01-18T05:07:54.977Z,3.27
2019-01-18T05:10:25.747Z,3.43
2019-01-18T05:12:55.001Z,3.43
2019-01-18T05:15:26.437Z,3.73
2019-01-18T05:17:55.695Z,3.57
2019-01-18T05:20:24.982Z,3.90
2019-01-18T05:22:54.235Z,3.73
2019-01-18T05:25:23.483Z,4.00
2019-01-18T05:27:52.772Z,3.33
2019-01-18T05:30:24.244Z,3.57
2019-01-18T05:32:53.534Z,3.93
2019-01-18T05:35:22.866Z,3.33
2019-01-18T05:37:52.154Z,3.50
2019-01-18T05:40:21.534Z,3.47
2019-01-18T05:42:50.766Z,3.40
2019-01-18T05:45:20.917Z,4.00
2019-01-18T05:47:52.887Z,3.67
2019-01-18T05:50:24.131Z,3.17
2019-01-18T05:52:53.433Z,3.80
2019-01-18T05:55:22.712Z,3.27
2019-01-18T05:57:52.079Z,4.73
2019-01-18T06:00:55.381Z,4.07
2019-01-18T06:03:20.808Z,3.80
2019-01-18T06:05:50.066Z,4.30
2019-01-18T06:08:19.431Z,4.27
2019-01-18T06:10:48.703Z,3.80
2019-01-18T06:13:18.030Z,4.50
2019-01-18T06:15:47.374Z,4.13
2019-01-18T06:18:16.595Z,4.57
2019-01-18T06:20:45.845Z,4.30
2019-01-18T06:23:15.093Z,4.23
2019-01-18T06:25:44.432Z,4.50
2019-01-18T06:28:13.865Z,4.50
2019-01-18T06:30:43.303Z,4.80
2019-01-18T06:33:12.553Z,5.63
2019-01-18T06:35:41.837Z,4.90
2019-01-18T06:38:11.258Z,4.80
2019-01-18T06:40:40.537Z,4.73
2019-01-18T06:43:09.945Z,3.77
2019-01-18T06:45:39.270Z,3.97
2019-01-18T06:48:08.555Z,4.57
2019-01-18T06:50:37.866Z,4.40
2019-01-18T06:53:07.295Z,4.40
2019-01-18T06:55:36.572Z,4.43
2019-01-18T06:58:05.952Z,4.40
2019-01-18T07:00:35.488Z,3.87
2019-01-18T07:03:05.505Z,4.43
2019-01-18T07:05:34.798Z,3.50
2019-01-18T07:08:04.188Z,4.17
2019-01-18T07:10:33.465Z,4.27
2019-01-18T07:13:02.775Z,3.77
2019-01-18T07:15:32.058Z,4.17
2019-01-18T07:18:01.392Z,4.27
2019-01-18T07:20:30.691Z,3.93
2019-01-18T07:22:59.948Z,4.00
2019-01-18T07:25:30.628Z,3.73
2019-01-18T07:27:59.975Z,3.73
2019-01-18T07:30:40.201Z,3.93
2019-01-18T07:33:11.561Z,3.63
2019-01-18T07:35:40.943Z,4.70
2019-01-18T07:38:10.283Z,4.00
2019-01-18T07:40:39.543Z,4.30
2019-01-18T07:43:08.835Z,3.77
2019-01-18T07:45:38.130Z,4.53
2019-01-18T07:48:08.558Z,4.77
2019-01-18T07:50:37.858Z,3.97
2019-01-18T07:53:07.197Z,4.03
2019-01-18T07:55:36.475Z,3.60
2019-01-18T07:58:05.815Z,4.57
2019-01-18T08:00:35.271Z,3.77
2019-01-18T08:03:04.587Z,4.00
2019-01-18T08:05:33.888Z,3.63
2019-01-18T08:08:03.274Z,6.73
2019-01-18T08:10:32.557Z,4.67
2019-01-18T08:13:01.916Z,3.70
2019-01-18T08:15:31.219Z,4.00
2019-01-18T08:18:00.631Z,3.87
2019-01-18T08:20:31.045Z,4.03
2019-01-18T08:23:01.378Z,3.47
2019-01-18T08:25:30.772Z,3.33
2019-01-18T08:28:00.507Z,3.70
2019-01-18T08:30:30.907Z,3.40
2019-01-18T08:33:00.164Z,3.00
2019-01-18T08:35:30.497Z,3.00
2019-01-18T08:37:59.911Z,2.63
2019-01-18T08:40:37.638Z,2.90
2019-01-18T08:43:09.059Z,2.90
2019-01-18T08:45:47.092Z,2.97
2019-01-18T08:48:16.361Z,2.97
2019-01-18T08:50:45.651Z,3.47
2019-01-18T08:53:14.958Z,3.60
2019-01-18T08:55:44.301Z,3.57
2019-01-18T08:58:33.007Z,3.80
2019-01-18T09:01:02.277Z,2.80
2019-01-18T09:03:31.637Z,3.00
2019-01-18T09:06:00.964Z,2.40
2019-01-18T09:08:30.329Z,2.80
2019-01-18T09:10:59.664Z,3.37
2019-01-18T09:13:28.968Z,2.80
2019-01-18T09:15:58.227Z,2.80
2019-01-18T09:18:27.464Z,2.60
2019-01-18T09:20:56.781Z,2.40
2019-01-18T09:23:26.068Z,3.00
2019-01-18T09:25:55.335Z,2.80
2019-01-18T09:28:24.629Z,2.87
2019-01-18T09:30:53.913Z,2.13
2019-01-18T09:33:23.167Z,2.80
2019-01-18T09:35:52.437Z,2.10
2019-01-18T09:38:21.759Z,3.37
2019-01-18T09:40:51.063Z,2.33
2019-01-18T09:43:20.393Z,2.70
2019-01-18T09:45:49.695Z,4.67
2019-01-18T09:48:19.072Z,3.00
2019-01-18T09:50:48.352Z,2.80
2019-01-18T09:53:17.621Z,2.40
2019-01-18T09:55:46.891Z,2.80
2019-01-18T09:58:16.273Z,3.33
2019-01-18T10:00:45.541Z,2.50
2019-01-18T10:03:14.850Z,3.37
2019-01-18T10:05:44.144Z,2.80
2019-01-18T10:08:13.586Z,2.83
2019-01-18T10:10:42.990Z,3.50
2019-01-18T10:13:12.242Z,3.30
2019-01-18T10:15:45.772Z,3.43
2019-01-18T10:18:15.477Z,3.17
2019-01-18T10:20:44.806Z,3.20
2019-01-18T10:23:14.092Z,3.13
2019-01-18T10:25:43.398Z,3.57
2019-01-18T10:28:12.791Z,3.80
2019-01-18T10:30:42.213Z,3.37
2019-01-18T10:33:11.604Z,3.67
2019-01-18T10:35:40.885Z,4.80
2019-01-18T10:38:10.145Z,3.10
2019-01-18T10:40:39.443Z,3.47
2019-01-18T10:43:08.780Z,3.30
2019-01-18T10:45:38.109Z,3.03
2019-01-18T10:48:07.393Z,3.30
2019-01-18T10:50:36.741Z,2.87
2019-01-18T10:53:06.106Z,4.90
2019-01-18T10:55:35.390Z,3.53
2019-01-18T10:58:04.706Z,3.10
2019-01-18T11:00:35.700Z,2.87
2019-01-18T11:03:05.675Z,2.40
2019-01-18T11:05:35.063Z,3.03
2019-01-18T11:08:04.485Z,2.53
2019-01-18T11:10:33.736Z,3.13
2019-01-18T11:13:03.071Z,2.97
2019-01-18T11:15:35.906Z,2.50
2019-01-18T11:18:01.663Z,2.50
2019-01-18T11:20:40.124Z,2.20
2019-01-18T11:23:06.366Z,2.67
2019-01-18T11:25:35.667Z,3.20
2019-01-18T11:28:04.931Z,2.80
2019-01-18T11:30:34.208Z,3.03
2019-01-18T11:33:03.495Z,3.43
2019-01-18T11:35:32.903Z,3.13
2019-01-18T11:38:02.231Z,3.03
2019-01-18T11:40:31.527Z,3.00
2019-01-18T11:43:00.807Z,5.50
2019-01-18T11:45:30.089Z,2.60
2019-01-18T11:47:59.381Z,2.60
2019-01-18T11:50:28.727Z,2.87
2019-01-18T11:52:58.010Z,3.17
2019-01-18T11:55:27.347Z,3.13
2019-01-18T11:57:56.587Z,3.00
2019-01-18T12:00:26.942Z,3.40
2019-01-18T12:02:56.264Z,3.10
2019-01-18T12:05:25.689Z,3.00
2019-01-18T12:07:54.951Z,2.90
2019-01-18T12:10:29.612Z,2.90
2019-01-18T12:12:58.993Z,2.97
2019-01-18T12:15:28.937Z,2.97
2019-01-18T12:17:58.183Z,3.30
2019-01-18T12:20:32.503Z,2.97
2019-01-18T12:23:01.841Z,2.97
2019-01-18T12:25:31.283Z,2.67
2019-01-18T12:28:00.743Z,2.77
2019-01-18T12:30:32.129Z,3.10
2019-01-18T12:33:01.379Z,2.97
2019-01-18T12:35:30.679Z,3.10
2019-01-18T12:38:00.021Z,3.00
2019-01-18T12:40:29.283Z,2.70
2019-01-18T12:42:58.756Z,3.10
2019-01-18T12:45:27.989Z,2.97
2019-01-18T12:47:57.340Z,2.53
2019-01-18T12:50:31.937Z,2.90
2019-01-18T12:53:01.339Z,3.60
2019-01-18T12:55:30.811Z,3.63
2019-01-18T12:58:00.253Z,3.03
2019-01-18T13:00:29.628Z,2.87
2019-01-18T13:02:58.953Z,2.90
2019-01-18T13:05:51.985Z,2.73
2019-01-18T13:08:21.430Z,2.50
2019-01-18T13:10:50.864Z,2.80
2019-01-18T13:13:20.123Z,3.37
2019-01-18T13:16:06.499Z,2.87
2019-01-18T13:18:35.827Z,2.53
2019-01-18T13:21:05.293Z,2.40
2019-01-18T13:23:34.637Z,2.80
2019-01-18T13:26:04.012Z,2.63
2019-01-18T13:28:33.364Z,3.43
2019-01-18T13:31:02.726Z,2.67
2019-01-18T13:33:31.992Z,2.70
2019-01-18T13:36:01.829Z,2.40
2019-01-18T13:38:33.538Z,2.30
2019-01-18T13:41:00.464Z,2.60
2019-01-18T13:43:29.731Z,2.23
2019-01-18T13:45:59.061Z,2.50
2019-01-18T13:48:28.306Z,2.60
2019-01-18T13:50:57.588Z,2.57
2019-01-18T13:53:26.932Z,2.53
2019-01-18T13:55:56.261Z,2.03
2019-01-18T13:58:25.565Z,2.23
2019-01-18T14:00:54.945Z,2.40
2019-01-18T14:03:24.226Z,2.30
2019-01-18T14:05:55.708Z,2.27
2019-01-18T14:08:25.109Z,2.03
2019-01-18T14:10:54.465Z,2.27
2019-01-18T14:13:23.805Z,2.57
2019-01-18T14:15:53.105Z,2.47
2019-01-18T14:18:22.456Z,3.00
2019-01-18T14:20:51.721Z,2.50
2019-01-18T14:23:21.019Z,3.00
2019-01-18T14:25:50.412Z,2.70
2019-01-18T14:28:19.699Z,2.00
2019-01-18T14:30:48.982Z,2.53
2019-01-18T14:33:18.291Z,2.00
2019-01-18T14:35:47.560Z,2.20
2019-01-18T14:38:16.962Z,2.20
2019-01-18T14:40:46.233Z,2.23
2019-01-18T14:43:15.579Z,1.90
2019-01-18T14:45:47.699Z,2.50
2019-01-18T14:48:17.739Z,2.20
2019-01-18T14:50:47.031Z,2.43
2019-01-18T14:53:16.435Z,2.30
2019-01-18T14:55:45.717Z,2.00
2019-01-18T14:58:15.141Z,2.10
2019-01-18T15:00:44.424Z,2.30
2019-01-18T15:03:16.420Z,2.03
2019-01-18T15:05:45.831Z,2.13
2019-01-18T15:08:15.095Z,2.33
2019-01-18T15:10:44.349Z,2.13
2019-01-18T15:13:16.144Z,2.47
2019-01-18T15:15:45.500Z,2.20
2019-01-18T15:18:15.589Z,2.00
2019-01-18T15:20:46.633Z,2.30
2019-01-18T15:23:14.264Z,2.13
2019-01-18T15:25:43.598Z,2.37
2019-01-18T15:28:12.871Z,2.10
2019-01-18T15:30:42.408Z,2.10
2019-01-18T15:33:11.726Z,2.20
2019-01-18T15:35:41.087Z,2.40
2019-01-18T15:38:11.648Z,2.27
2019-01-18T15:40:43.931Z,2.67
2019-01-18T15:43:13.833Z,2.30
2019-01-18T15:45:43.122Z,2.30
2019-01-18T15:48:12.401Z,2.13
2019-01-18T15:50:42.229Z,2.13
2019-01-18T15:53:11.474Z,2.73
2019-01-18T15:55:40.806Z,2.83
2019-01-18T15:58:10.366Z,3.60
2019-01-18T16:00:48.523Z,2.93
2019-01-18T16:03:17.797Z,3.00
2019-01-18T16:05:49.276Z,2.63
2019-01-18T16:08:18.579Z,4.07
2019-01-18T16:10:47.869Z,3.73
2019-01-18T16:13:17.173Z,3.33
2019-01-18T16:16:18.060Z,2.87
2019-01-18T16:18:47.464Z,2.83
2019-01-18T16:21:16.820Z,2.77
2019-01-18T16:23:46.133Z,2.90
2019-01-18T16:26:15.412Z,3.17
2019-01-18T16:28:44.739Z,3.27
2019-01-18T16:31:14.181Z,3.03
2019-01-18T16:33:43.469Z,3.27
2019-01-18T16:36:12.894Z,3.20
2019-01-18T16:38:42.134Z,3.43
2019-01-18T16:41:11.580Z,3.80
2019-01-18T16:43:43.719Z,4.70
2019-01-18T16:46:13.071Z,4.83
2019-01-18T16:48:42.397Z,4.60
2019-01-18T16:51:11.783Z,5.60
2019-01-18T16:53:41.052Z,5.17
2019-01-18T16:56:10.445Z,6.03
2019-01-18T16:58:39.739Z,5.57
2019-01-18T17:01:10.190Z,5.57
2019-01-18T17:03:39.560Z,6.23
2019-01-18T17:06:08.991Z,6.37
2019-01-18T17:08:38.499Z,6.37
2019-01-18T17:11:07.984Z,8.70
2019-01-18T17:13:39.052Z,7.47
2019-01-18T17:16:08.533Z,7.93
2019-01-18T17:18:37.847Z,7.40
2019-01-18T17:21:10.693Z,6.70
2019-01-18T17:23:39.987Z,7.70
2019-01-18T17:26:09.434Z,7.47
2019-01-18T17:28:38.800Z,7.20
2019-01-18T17:31:08.123Z,8.23
2019-01-18T17:33:38.589Z,8.43
2019-01-18T17:36:18.032Z,8.20
2019-01-18T17:39:15.986Z,8.43
2019-01-18T17:42:39.553Z,9.33
2019-01-18T17:45:47.537Z,9.40
2019-01-18T17:49:07.921Z,10.30
2019-01-18T17:52:37.022Z,10.73
2019-01-18T17:55:56.803Z,10.27
2019-01-18T17:59:16.984Z,10.17
2019-01-18T18:02:09.387Z,10.73
2019-01-18T18:05:13.686Z,10.93
2019-01-18T18:08:09.591Z,10.33
2019-01-18T18:11:29.671Z,11.07
2019-01-18T18:14:29.880Z,10.83
2019-01-18T18:17:56.320Z,10.17
2019-01-18T18:21:03.610Z,11.00
2019-01-18T18:24:06.247Z,11.17
2019-01-18T18:27:25.637Z,11.10
2019-01-18T18:30:51.833Z,10.63
2019-01-18T18:34:11.717Z,9.63
2019-01-18T18:37:19.866Z,11.27
2019-01-18T18:40:19.674Z,10.23
2019-01-18T18:43:24.394Z,10.43
2019-01-18T18:46:26.100Z,10.87
2019-01-18T18:49:20.724Z,10.80
2019-01-18T18:52:46.859Z,10.60
2019-01-18T18:55:55.801Z,11.70
2019-01-18T18:59:06.273Z,9.70
2019-01-18T19:02:11.959Z,10.20
2019-01-18T19:05:03.241Z,11.17
2019-01-18T19:08:17.956Z,11.13
2019-01-18T19:11:37.587Z,10.87
2019-01-18T19:14:47.771Z,10.23
2019-01-18T19:17:46.865Z,9.97
2019-01-18T19:20:46.524Z,11.43
2019-01-18T19:23:53.288Z,12.13
2019-01-18T19:26:51.305Z,11.30
2019-01-18T19:30:04.230Z,12.30
2019-01-18T19:33:27.686Z,18.07
2019-01-18T19:36:38.033Z,15.30
2019-01-18T19:39:59.209Z,15.40
2019-01-18T19:43:16.213Z,12.60
2019-01-18T19:46:32.038Z,11.63
2019-01-18T19:49:27.508Z,12.10
2019-01-18T19:52:16.517Z,12.37
2019-01-18T19:55:22.722Z,11.33
2019-01-18T19:58:34.042Z,11.43
2019-01-18T20:01:27.652Z,12.57
2019-01-18T20:04:51.202Z,11.23
2019-01-18T20:08:03.250Z,11.60
2019-01-18T20:10:48.595Z,11.77
2019-01-18T20:13:37.775Z,11.93
2019-01-18T20:16:23.443Z,12.70
2019-01-18T20:19:34.623Z,10.93
2019-01-18T20:22:44.135Z,11.07
2019-01-18T20:25:32.712Z,12.27
2019-01-18T20:28:44.779Z,12.57
2019-01-18T20:31:36.614Z,11.57
2019-01-18T20:34:44.489Z,12.70
2019-01-18T20:37:46.981Z,12.43
2019-01-18T20:41:22.581Z,14.23
2019-01-18T20:44:05.719Z,13.90
2019-01-18T20:47:37.985Z,18.13
2019-01-18T20:50:54.905Z,14.70
2019-01-18T20:54:01.378Z,13.10
2019-01-18T20:57:04.854Z,13.60
2019-01-18T20:59:56.392Z,16.30
2019-01-18T21:03:10.240Z,13.97
2019-01-18T21:05:49.633Z,14.53
2019-01-18T21:09:01.512Z,13.93
2019-01-18T21:11:39.597Z,18.10
2019-01-18T21:15:02.309Z,19.53
2019-01-18T21:18:07.881Z,15.70
2019-01-18T21:20:51.380Z,14.80
2019-01-18T21:23:43.321Z,13.63
2019-01-18T21:26:54.279Z,15.20
2019-01-18T21:29:56.498Z,13.63
2019-01-18T21:33:06.329Z,14.83
2019-01-18T21:36:10.668Z,14.07
2019-01-18T21:38:58.924Z,15.13
2019-01-18T21:42:01.781Z,14.10
2019-01-18T21:44:48.460Z,16.37
2019-01-18T21:47:59.800Z,15.07
2019-01-18T21:51:04.795Z,13.83
2019-01-18T21:53:58.549Z,14.43
2019-01-18T21:57:07.899Z,13.63
2019-01-18T22:00:22.298Z,12.23
2019-01-18T22:03:06.644Z,18.67
2019-01-18T22:06:02.459Z,15.80
2019-01-18T22:09:11.859Z,11.33
2019-01-18T22:12:29.787Z,10.93
2019-01-18T22:15:13.980Z,10.73
2019-01-18T22:18:15.474Z,10.73
2019-01-18T22:21:38.851Z,9.37
2019-01-18T22:25:01.289Z,9.30
2019-01-18T22:27:59.938Z,9.80
2019-01-18T22:31:00.565Z,10.07
2019-01-18T22:34:04.726Z,9.63
2019-01-18T22:37:04.855Z,9.57
2019-01-18T22:40:14.280Z,9.50
2019-01-18T22:42:57.621Z,9.33
2019-01-18T22:46:18.647Z,10.13
2019-01-18T22:49:24.731Z,9.83
2019-01-18T22:52:24.334Z,9.27
2019-01-18T22:55:20.903Z,9.37
2019-01-18T22:58:41.233Z,9.10
2019-01-18T23:01:47.894Z,9.17
2019-01-18T23:05:07.952Z,9.37
2019-01-18T23:08:21.714Z,8.10
2019-01-18T23:11:19.515Z,8.33
2019-01-18T23:14:21.411Z,9.03
2019-01-18T23:17:23.077Z,9.67
2019-01-18T23:20:28.966Z,9.50
2019-01-18T23:23:26.161Z,9.17
2019-01-18T23:26:28.243Z,24.80
2019-01-18T23:29:42.064Z,13.47
2019-01-18T23:32:34.233Z,11.03
2019-01-18T23:35:28.710Z,9.33
2019-01-18T23:38:51.686Z,8.73
2019-01-18T23:41:29.775Z,9.40
2019-01-18T23:44:18.141Z,9.60
2019-01-18T23:47:17.297Z,8.83
2019-01-18T23:50:12.447Z,9.07
2019-01-18T23:52:58.805Z,8.30
2019-01-18T23:56:00.987Z,8.17
2019-01-18T23:58:39.519Z,7.47
